createdAt,value
2023-05-04T00:02:14.581Z,98.85
2023-05-04T00:04:43.103Z,98.76
2023-05-04T00:07:10.482Z,99.15
2023-05-04T00:09:45.064Z,100.00
2023-05-04T00:12:12.497Z,100.00
2023-05-04T00:14:40.061Z,100.00
2023-05-04T00:17:08.222Z,100.00
2023-05-04T00:19:40.692Z,100.00
2023-05-04T00:22:08.500Z,100.00
2023-05-04T00:24:36.022Z,100.00
2023-05-04T00:27:10.564Z,100.00
2023-05-04T00:29:39.041Z,100.00
2023-05-04T00:32:06.723Z,100.00
2023-05-04T00:34:40.150Z,100.00
2023-05-04T00:37:07.628Z,100.00
2023-05-04T00:39:37.834Z,100.00
2023-05-04T00:42:04.999Z,100.00
2023-05-04T00:44:34.834Z,100.00
2023-05-04T00:47:03.830Z,100.00
2023-05-04T00:49:37.152Z,100.00
2023-05-04T00:52:05.643Z,100.00
2023-05-04T00:54:34.720Z,100.00
2023-05-04T00:57:08.502Z,100.00
2023-05-04T00:59:36.726Z,100.00
2023-05-04T01:02:04.094Z,100.00
2023-05-04T01:04:31.889Z,100.00
2023-05-04T01:07:11.006Z,100.00
2023-05-04T01:09:42.052Z,100.00
2023-05-04T01:12:38.842Z,100.00
2023-05-04T01:15:06.966Z,100.00
2023-05-04T01:17:34.042Z,100.00
2023-05-04T01:20:02.721Z,100.00
2023-05-04T01:22:30.433Z,100.00
2023-05-04T01:24:59.053Z,100.00
2023-05-04T01:27:36.635Z,100.00
2023-05-04T01:30:15.198Z,100.00
2023-05-04T01:32:44.253Z,100.00
2023-05-04T01:35:12.785Z,100.00
2023-05-04T01:37:46.423Z,100.00
2023-05-04T01:40:16.124Z,100.00
2023-05-04T01:42:45.500Z,100.00
2023-05-04T01:45:14.989Z,100.00
2023-05-04T01:47:42.459Z,100.00
2023-05-04T01:50:10.064Z,100.00
2023-05-04T01:52:37.286Z,100.00
2023-05-04T01:55:04.941Z,100.00
2023-05-04T01:57:32.249Z,100.00
2023-05-04T01:59:59.806Z,100.00
2023-05-04T02:02:27.202Z,100.00
2023-05-04T02:04:54.670Z,100.00
2023-05-04T02:07:22.035Z,100.00
2023-05-04T02:09:49.546Z,100.00
2023-05-04T02:12:18.128Z,100.00
2023-05-04T02:14:45.705Z,100.00
2023-05-04T02:17:12.840Z,100.00
2023-05-04T02:19:40.363Z,100.00
2023-05-04T02:22:07.837Z,100.00
2023-05-04T02:24:36.297Z,100.00
2023-05-04T02:27:04.793Z,100.00
2023-05-04T02:29:34.363Z,100.00
2023-05-04T02:32:01.963Z,100.00
2023-05-04T02:34:30.327Z,100.00
2023-05-04T02:36:57.796Z,100.00
2023-05-04T02:39:26.214Z,100.00
2023-05-04T02:41:53.677Z,100.00
2023-05-04T02:44:21.079Z,100.00
2023-05-04T02:46:49.578Z,100.00
2023-05-04T02:49:18.049Z,100.00
2023-05-04T02:51:47.683Z,100.00
2023-05-04T02:54:15.020Z,100.00
2023-05-04T02:56:42.465Z,100.00
2023-05-04T02:59:09.910Z,100.00
2023-05-04T03:01:37.428Z,100.00
2023-05-04T03:04:06.323Z,100.00
2023-05-04T03:06:34.155Z,100.00
2023-05-04T03:09:01.258Z,100.00
2023-05-04T03:11:28.716Z,100.00
2023-05-04T03:13:56.359Z,100.00
2023-05-04T03:16:24.825Z,100.00
2023-05-04T03:18:58.261Z,100.00
2023-05-04T03:21:25.602Z,100.00
2023-05-04T03:23:52.640Z,100.00
2023-05-04T03:26:20.152Z,100.00
2023-05-04T03:28:48.609Z,100.00
2023-05-04T03:31:16.095Z,100.00
2023-05-04T03:33:43.623Z,100.00
2023-05-04T03:36:12.010Z,100.00
2023-05-04T03:38:41.899Z,100.00
2023-05-04T03:41:11.539Z,100.00
2023-05-04T03:43:39.185Z,100.00
2023-05-04T03:46:13.413Z,100.00
2023-05-04T03:48:41.114Z,100.00
2023-05-04T03:51:08.625Z,100.00
2023-05-04T03:53:36.158Z,100.00
2023-05-04T03:56:03.991Z,100.00
2023-05-04T03:58:31.487Z,100.00
2023-05-04T04:00:58.828Z,100.00
2023-05-04T04:03:26.446Z,100.00
2023-05-04T04:05:54.780Z,100.00
2023-05-04T04:08:22.311Z,100.00
2023-05-04T04:10:49.708Z,100.00
2023-05-04T04:13:17.186Z,100.00
2023-05-04T04:15:45.919Z,100.00
2023-05-04T04:18:15.193Z,100.00
2023-05-04T04:20:42.760Z,100.00
2023-05-04T04:23:10.257Z,100.00
2023-05-04T04:25:38.169Z,100.00
2023-05-04T04:28:05.616Z,100.00
2023-05-04T04:30:33.061Z,100.00
2023-05-04T04:33:00.698Z,100.00
2023-05-04T04:35:29.014Z,100.00
2023-05-04T04:37:56.519Z,100.00
2023-05-04T04:40:23.989Z,100.00
2023-05-04T04:42:52.682Z,100.00
2023-05-04T04:45:20.830Z,100.00
2023-05-04T04:47:49.279Z,100.00
2023-05-04T04:50:16.385Z,100.00
2023-05-04T04:52:44.006Z,100.00
2023-05-04T04:55:13.669Z,100.00
2023-05-04T04:57:41.861Z,100.00
2023-05-04T05:00:14.679Z,100.00
2023-05-04T05:02:43.848Z,100.00
2023-05-04T05:05:13.319Z,100.00
2023-05-04T05:07:40.912Z,100.00
2023-05-04T05:10:15.193Z,100.00
2023-05-04T05:12:43.645Z,100.00
2023-05-04T05:15:11.149Z,100.00
2023-05-04T05:17:38.295Z,100.00
2023-05-04T05:20:16.140Z,100.00
2023-05-04T05:22:43.693Z,100.00
2023-05-04T05:25:11.174Z,100.00
2023-05-04T05:27:38.554Z,100.00
2023-05-04T05:30:07.617Z,100.00
2023-05-04T05:32:38.914Z,100.00
2023-05-04T05:35:06.862Z,100.00
2023-05-04T05:37:34.038Z,100.00
2023-05-04T05:40:14.372Z,100.00
2023-05-04T05:42:43.260Z,100.00
2023-05-04T05:45:11.209Z,100.00
2023-05-04T05:47:38.756Z,98.84
2023-05-04T05:50:08.145Z,97.06
2023-05-04T05:52:35.571Z,95.91
2023-05-04T05:55:03.231Z,94.81
2023-05-04T05:57:31.861Z,93.22
2023-05-04T05:59:59.052Z,91.77
2023-05-04T06:02:28.548Z,89.69
2023-05-04T06:04:56.023Z,87.64
2023-05-04T06:07:24.051Z,85.90
2023-05-04T06:09:51.673Z,83.91
2023-05-04T06:12:22.986Z,83.03
2023-05-04T06:14:50.407Z,81.53
2023-05-04T06:17:18.952Z,78.90
2023-05-04T06:19:48.073Z,79.27
2023-05-04T06:22:23.048Z,78.54
2023-05-04T06:24:50.182Z,76.85
2023-05-04T06:27:17.361Z,76.69
2023-05-04T06:29:44.780Z,76.05
2023-05-04T06:32:12.495Z,75.45
2023-05-04T06:34:39.676Z,75.31
2023-05-04T06:37:07.188Z,76.13
2023-05-04T06:39:34.743Z,74.42
2023-05-04T06:42:02.473Z,72.88
2023-05-04T06:44:29.721Z,72.55
2023-05-04T06:46:57.027Z,71.11
2023-05-04T06:49:24.518Z,68.92
2023-05-04T06:51:51.902Z,66.96
2023-05-04T06:54:19.401Z,65.38
2023-05-04T06:56:46.991Z,64.28
2023-05-04T06:59:14.323Z,63.98
2023-05-04T07:01:41.869Z,63.48
2023-05-04T07:04:09.423Z,63.75
2023-05-04T07:06:37.508Z,63.71
2023-05-04T07:09:10.394Z,63.01
2023-05-04T07:11:37.712Z,62.80
2023-05-04T07:14:05.243Z,62.63
2023-05-04T07:16:33.366Z,61.81
2023-05-04T07:19:07.352Z,59.57
2023-05-04T07:21:34.855Z,60.44
2023-05-04T07:24:02.209Z,57.36
2023-05-04T07:26:29.681Z,56.31
2023-05-04T07:28:57.107Z,55.65
2023-05-04T07:31:26.626Z,54.37
2023-05-04T07:33:55.582Z,54.50
2023-05-04T07:36:25.208Z,54.41
2023-05-04T07:38:52.770Z,54.52
2023-05-04T07:41:21.202Z,50.23
2023-05-04T07:43:48.588Z,50.30
2023-05-04T07:46:16.809Z,51.01
2023-05-04T07:48:44.464Z,50.56
2023-05-04T07:51:15.861Z,47.57
2023-05-04T07:53:44.136Z,48.47
2023-05-04T07:56:13.227Z,49.52
2023-05-04T07:58:40.802Z,46.07
2023-05-04T08:01:08.726Z,48.74
2023-05-04T08:03:36.851Z,48.94
2023-05-04T08:06:04.346Z,49.91
2023-05-04T08:08:31.916Z,47.07
2023-05-04T08:11:15.794Z,48.55
2023-05-04T08:13:48.149Z,48.53
2023-05-04T08:16:15.923Z,44.56
2023-05-04T08:18:43.830Z,44.04
2023-05-04T08:21:11.106Z,43.49
2023-05-04T08:23:38.962Z,43.33
2023-05-04T08:26:06.500Z,44.06
2023-05-04T08:28:40.687Z,44.16
2023-05-04T08:31:08.266Z,40.97
2023-05-04T08:33:35.571Z,43.66
2023-05-04T08:36:04.580Z,43.47
2023-05-04T08:38:39.161Z,43.20
2023-05-04T08:41:07.583Z,44.42
2023-05-04T08:43:36.792Z,45.48
2023-05-04T08:46:07.011Z,46.47
2023-05-04T08:48:35.196Z,43.40
2023-05-04T08:51:04.838Z,42.24
2023-05-04T08:53:33.074Z,42.03
2023-05-04T08:56:04.692Z,39.42
2023-05-04T08:58:38.242Z,39.80
2023-05-04T09:01:07.967Z,41.67
2023-05-04T09:03:35.877Z,43.88
2023-05-04T09:06:10.233Z,42.63
2023-05-04T09:08:38.042Z,42.04
2023-05-04T09:11:06.289Z,41.27
2023-05-04T09:13:36.956Z,40.02
2023-05-04T09:16:04.698Z,42.27
2023-05-04T09:18:43.218Z,41.92
2023-05-04T09:21:11.790Z,41.87
2023-05-04T09:23:51.918Z,41.33
2023-05-04T09:26:31.623Z,42.19
2023-05-04T09:29:16.001Z,41.46
2023-05-04T09:31:56.668Z,39.69
2023-05-04T09:34:24.058Z,39.22
2023-05-04T09:37:02.254Z,37.48
2023-05-04T09:39:30.798Z,39.93
2023-05-04T09:41:59.198Z,41.93
2023-05-04T09:44:29.902Z,40.64
2023-05-04T09:46:58.960Z,40.71
2023-05-04T09:49:37.315Z,37.34
2023-05-04T09:52:06.260Z,39.89
2023-05-04T09:54:36.480Z,36.35
2023-05-04T09:57:15.795Z,37.76
2023-05-04T09:59:44.183Z,37.68
2023-05-04T10:02:22.644Z,37.38
2023-05-04T10:04:57.606Z,37.65
2023-05-04T10:07:25.292Z,36.93
2023-05-04T10:09:54.209Z,36.74
2023-05-04T10:12:21.452Z,34.06
2023-05-04T10:14:48.920Z,33.95
2023-05-04T10:17:41.183Z,33.98
2023-05-04T10:20:27.330Z,35.20
2023-05-04T10:23:09.847Z,37.59
2023-05-04T10:26:16.114Z,36.31
2023-05-04T10:29:07.151Z,35.29
2023-05-04T10:31:53.887Z,34.50
2023-05-04T10:34:35.417Z,35.55
2023-05-04T10:37:04.458Z,33.78
2023-05-04T10:39:34.480Z,32.85
2023-05-04T10:42:05.281Z,31.28
2023-05-04T10:44:34.521Z,32.98
2023-05-04T10:47:09.239Z,32.11
2023-05-04T10:49:36.761Z,33.58
2023-05-04T10:52:18.300Z,34.36
2023-05-04T10:54:47.244Z,32.58
2023-05-04T10:57:17.908Z,32.47
2023-05-04T10:59:56.787Z,32.42
2023-05-04T11:02:25.397Z,31.53
2023-05-04T11:05:07.390Z,28.75
2023-05-04T11:07:39.494Z,31.06
2023-05-04T11:10:09.945Z,31.84
2023-05-04T11:12:38.455Z,29.72
2023-05-04T11:15:08.743Z,29.94
2023-05-04T11:17:52.040Z,29.21
2023-05-04T11:20:27.296Z,30.71
2023-05-04T11:22:55.599Z,30.79
2023-05-04T11:25:30.125Z,30.83
2023-05-04T11:28:00.157Z,28.17
2023-05-04T11:30:34.950Z,27.77
2023-05-04T11:33:05.004Z,29.11
2023-05-04T11:35:39.011Z,28.96
2023-05-04T11:38:07.749Z,28.44
2023-05-04T11:40:41.213Z,28.60
2023-05-04T11:43:11.603Z,28.20
2023-05-04T11:45:41.224Z,27.38
2023-05-04T11:48:09.611Z,28.65
2023-05-04T11:50:38.226Z,27.58
2023-05-04T11:53:11.763Z,28.80
2023-05-04T11:55:39.261Z,27.74
2023-05-04T11:58:13.061Z,27.89
2023-05-04T12:00:47.451Z,26.79
2023-05-04T12:03:17.410Z,28.50
2023-05-04T12:05:50.965Z,27.68
2023-05-04T12:08:42.541Z,27.23
2023-05-04T12:11:16.761Z,28.63
2023-05-04T12:13:46.044Z,27.46
2023-05-04T12:16:18.442Z,26.41
2023-05-04T12:18:47.029Z,26.92
2023-05-04T12:21:15.468Z,25.80
2023-05-04T12:23:43.036Z,26.72
2023-05-04T12:26:12.249Z,26.81
2023-05-04T12:28:43.038Z,26.63
2023-05-04T12:31:10.467Z,25.93
2023-05-04T12:33:37.702Z,25.38
2023-05-04T12:36:12.825Z,27.18
2023-05-04T12:38:40.300Z,24.74
2023-05-04T12:41:11.129Z,25.28
2023-05-04T12:43:38.618Z,25.48
2023-05-04T12:46:07.835Z,25.72
2023-05-04T12:48:35.462Z,24.99
2023-05-04T12:51:04.799Z,24.43
2023-05-04T12:53:32.607Z,26.24
2023-05-04T12:56:01.738Z,25.00
2023-05-04T12:58:29.277Z,25.88
2023-05-04T13:00:58.153Z,25.09
2023-05-04T13:03:25.832Z,23.54
2023-05-04T13:06:06.210Z,24.04
2023-05-04T13:08:33.887Z,24.90
2023-05-04T13:11:02.502Z,25.73
2023-05-04T13:13:30.028Z,26.09
2023-05-04T13:15:57.674Z,26.33
2023-05-04T13:18:28.061Z,23.45
2023-05-04T13:20:56.304Z,23.80
2023-05-04T13:23:24.188Z,25.59
2023-05-04T13:25:52.342Z,24.46
2023-05-04T13:28:19.861Z,24.57
2023-05-04T13:30:47.191Z,22.71
2023-05-04T13:33:28.039Z,24.20
2023-05-04T13:35:58.540Z,23.63
2023-05-04T13:38:27.489Z,22.44
2023-05-04T13:40:56.392Z,22.91
2023-05-04T13:43:24.085Z,23.73
2023-05-04T13:45:51.715Z,23.67
2023-05-04T13:48:18.754Z,24.47
2023-05-04T13:50:46.389Z,23.91
2023-05-04T13:53:14.805Z,23.48
2023-05-04T13:55:42.142Z,24.43
2023-05-04T13:58:15.847Z,24.31
2023-05-04T14:00:48.944Z,23.50
2023-05-04T14:03:23.139Z,24.20
2023-05-04T14:05:51.874Z,23.64
2023-05-04T14:08:19.459Z,24.01
2023-05-04T14:10:47.192Z,23.15
2023-05-04T14:13:17.208Z,23.58
2023-05-04T14:15:45.615Z,23.60
2023-05-04T14:18:19.139Z,23.36
2023-05-04T14:20:48.951Z,23.49
2023-05-04T14:23:16.616Z,23.06
2023-05-04T14:25:50.732Z,22.25
2023-05-04T14:28:19.281Z,22.84
2023-05-04T14:30:46.607Z,22.78
2023-05-04T14:33:14.042Z,22.55
2023-05-04T14:35:44.687Z,21.56
2023-05-04T14:38:13.610Z,22.07
2023-05-04T14:40:40.860Z,21.59
2023-05-04T14:43:08.481Z,23.32
2023-05-04T14:45:35.867Z,23.69
2023-05-04T14:48:03.421Z,23.58
2023-05-04T14:50:30.742Z,23.53
2023-05-04T14:52:58.278Z,21.72
2023-05-04T14:55:25.741Z,23.62
2023-05-04T14:57:53.211Z,23.58
2023-05-04T15:00:20.831Z,23.08
2023-05-04T15:02:48.171Z,22.87
2023-05-04T15:05:21.587Z,22.71
2023-05-04T15:07:49.091Z,23.59
2023-05-04T15:10:16.661Z,23.56
2023-05-04T15:12:44.023Z,23.38
2023-05-04T15:15:13.059Z,23.14
2023-05-04T15:17:40.223Z,24.36
2023-05-04T15:20:12.033Z,23.98
2023-05-04T15:22:40.372Z,23.03
2023-05-04T15:25:09.149Z,23.98
2023-05-04T15:27:37.320Z,24.00
2023-05-04T15:30:05.212Z,24.08
2023-05-04T15:32:33.650Z,23.58
2023-05-04T15:35:05.434Z,23.68
2023-05-04T15:37:33.807Z,23.40
2023-05-04T15:40:02.531Z,23.63
2023-05-04T15:42:30.589Z,23.86
2023-05-04T15:44:58.193Z,24.59
2023-05-04T15:47:25.706Z,24.91
2023-05-04T15:49:53.133Z,24.23
2023-05-04T15:52:21.556Z,24.46
2023-05-04T15:54:50.142Z,24.36
2023-05-04T15:57:19.469Z,24.52
2023-05-04T15:59:49.943Z,23.92
2023-05-04T16:02:17.727Z,24.73
2023-05-04T16:05:04.704Z,25.19
2023-05-04T16:07:36.782Z,25.54
2023-05-04T16:10:07.171Z,25.40
2023-05-04T16:12:34.650Z,25.54
2023-05-04T16:15:02.005Z,26.01
2023-05-04T16:17:30.883Z,26.09
2023-05-04T16:19:58.347Z,26.43
2023-05-04T16:22:26.800Z,26.27
2023-05-04T16:24:54.397Z,26.29
2023-05-04T16:27:24.369Z,25.90
2023-05-04T16:29:51.840Z,25.41
2023-05-04T16:32:20.752Z,25.63
2023-05-04T16:34:50.340Z,25.70
2023-05-04T16:37:24.400Z,26.14
2023-05-04T16:39:51.921Z,26.34
2023-05-04T16:42:21.519Z,27.06
2023-05-04T16:44:49.320Z,28.20
2023-05-04T16:47:16.817Z,27.81
2023-05-04T16:49:44.456Z,28.89
2023-05-04T16:52:11.729Z,28.68
2023-05-04T16:54:39.204Z,28.88
2023-05-04T16:57:06.750Z,28.80
2023-05-04T16:59:34.178Z,28.75
2023-05-04T17:02:01.620Z,29.03
2023-05-04T17:04:31.430Z,29.50
2023-05-04T17:06:58.515Z,30.13
2023-05-04T17:09:25.681Z,30.14
2023-05-04T17:11:59.048Z,29.68
2023-05-04T17:14:26.653Z,29.72
2023-05-04T17:16:54.418Z,29.77
2023-05-04T17:19:21.603Z,30.49
2023-05-04T17:21:54.482Z,31.46
2023-05-04T17:24:22.558Z,31.51
2023-05-04T17:26:52.037Z,31.38
2023-05-04T17:29:19.504Z,31.43
2023-05-04T17:31:46.948Z,34.36
2023-05-04T17:34:14.404Z,35.63
2023-05-04T17:36:41.833Z,36.19
2023-05-04T17:39:09.299Z,38.06
2023-05-04T17:41:36.847Z,37.95
2023-05-04T17:44:06.353Z,38.97
2023-05-04T17:46:34.931Z,40.03
2023-05-04T17:49:03.318Z,41.55
2023-05-04T17:51:36.610Z,41.84
2023-05-04T17:54:04.093Z,41.41
2023-05-04T17:56:31.322Z,41.39
2023-05-04T17:59:00.790Z,41.65
2023-05-04T18:01:28.385Z,44.06
2023-05-04T18:03:55.860Z,44.05
2023-05-04T18:06:23.351Z,44.86
2023-05-04T18:08:50.710Z,46.50
2023-05-04T18:11:19.127Z,45.45
2023-05-04T18:13:46.513Z,46.15
2023-05-04T18:16:13.851Z,46.13
2023-05-04T18:18:41.452Z,47.19
2023-05-04T18:21:09.249Z,49.39
2023-05-04T18:23:36.786Z,50.14
2023-05-04T18:26:04.384Z,49.62
2023-05-04T18:28:32.502Z,50.08
2023-05-04T18:31:02.190Z,50.11
2023-05-04T18:33:31.670Z,49.58
2023-05-04T18:36:09.390Z,50.45
2023-05-04T18:38:38.333Z,50.89
2023-05-04T18:41:12.271Z,51.24
2023-05-04T18:43:42.134Z,51.70
2023-05-04T18:46:11.101Z,52.13
2023-05-04T18:48:39.646Z,51.95
2023-05-04T18:51:08.841Z,51.44
2023-05-04T18:53:36.490Z,50.44
2023-05-04T18:56:06.660Z,50.38
2023-05-04T18:58:36.327Z,50.36
2023-05-04T19:01:05.673Z,51.23
2023-05-04T19:03:34.012Z,52.19
2023-05-04T19:06:03.595Z,52.55
2023-05-04T19:08:31.072Z,52.48
2023-05-04T19:10:59.625Z,54.67
2023-05-04T19:13:27.392Z,55.75
2023-05-04T19:15:54.556Z,56.40
2023-05-04T19:18:28.220Z,55.79
2023-05-04T19:21:06.469Z,56.29
2023-05-04T19:23:33.695Z,55.91
2023-05-04T19:26:01.502Z,56.13
2023-05-04T19:28:28.714Z,56.21
2023-05-04T19:30:56.211Z,55.96
2023-05-04T19:33:28.160Z,56.10
2023-05-04T19:36:04.556Z,56.76
2023-05-04T19:38:31.867Z,57.08
2023-05-04T19:41:00.363Z,56.57
2023-05-04T19:43:33.947Z,56.89
2023-05-04T19:46:04.427Z,57.50
2023-05-04T19:48:32.121Z,57.66
2023-05-04T19:51:00.401Z,57.71
2023-05-04T19:53:27.762Z,60.55
2023-05-04T19:55:55.701Z,59.84
2023-05-04T19:58:28.615Z,60.62
2023-05-04T20:00:55.881Z,60.65
2023-05-04T20:03:23.347Z,60.43
2023-05-04T20:05:55.846Z,60.31
2023-05-04T20:08:23.332Z,60.37
2023-05-04T20:10:57.971Z,63.41
2023-05-04T20:13:25.953Z,65.18
2023-05-04T20:15:53.395Z,65.71
2023-05-04T20:18:20.863Z,64.69
2023-05-04T20:20:48.235Z,65.31
2023-05-04T20:23:15.849Z,62.26
2023-05-04T20:25:43.204Z,68.12
2023-05-04T20:28:10.952Z,69.09
2023-05-04T20:30:38.102Z,68.48
2023-05-04T20:33:06.678Z,67.44
2023-05-04T20:35:44.560Z,66.88
2023-05-04T20:38:17.890Z,67.07
2023-05-04T20:40:46.367Z,66.33
2023-05-04T20:43:15.118Z,66.09
2023-05-04T20:45:42.360Z,66.55
2023-05-04T20:48:09.803Z,65.97
2023-05-04T20:50:37.252Z,63.97
2023-05-04T20:53:04.649Z,64.45
2023-05-04T20:55:32.259Z,65.77
2023-05-04T20:57:59.552Z,67.50
2023-05-04T21:00:29.197Z,68.63
2023-05-04T21:02:56.637Z,67.05
2023-05-04T21:05:23.997Z,66.68
2023-05-04T21:07:52.796Z,67.28
2023-05-04T21:10:20.365Z,65.63
2023-05-04T21:12:47.956Z,65.96
2023-05-04T21:15:17.851Z,66.37
2023-05-04T21:17:53.521Z,65.10
2023-05-04T21:20:22.331Z,62.90
2023-05-04T21:22:52.001Z,61.46
2023-05-04T21:25:19.624Z,62.12
2023-05-04T21:27:47.997Z,61.38
2023-05-04T21:30:16.648Z,61.42
2023-05-04T21:32:44.018Z,61.75
2023-05-04T21:35:11.563Z,61.06
2023-05-04T21:37:38.822Z,60.20
2023-05-04T21:40:09.246Z,59.81
2023-05-04T21:42:36.791Z,59.17
2023-05-04T21:45:04.608Z,58.81
2023-05-04T21:47:32.732Z,58.95
2023-05-04T21:50:01.249Z,60.02
2023-05-04T21:52:28.693Z,59.11
2023-05-04T21:54:56.169Z,59.26
2023-05-04T21:57:25.648Z,59.15
2023-05-04T21:59:53.130Z,59.11
2023-05-04T22:02:20.703Z,58.44
2023-05-04T22:04:48.168Z,57.96
2023-05-04T22:07:16.009Z,57.88
2023-05-04T22:09:43.468Z,57.72
2023-05-04T22:12:12.051Z,57.83
2023-05-04T22:14:42.581Z,57.41
2023-05-04T22:17:09.930Z,57.62
2023-05-04T22:19:38.664Z,57.08
2023-05-04T22:22:05.847Z,57.34
2023-05-04T22:24:33.271Z,56.77
2023-05-04T22:27:00.773Z,56.24
2023-05-04T22:29:28.162Z,56.97
2023-05-04T22:31:56.171Z,57.24
2023-05-04T22:34:23.665Z,57.41
2023-05-04T22:36:51.136Z,58.39
2023-05-04T22:39:18.553Z,58.56
2023-05-04T22:41:46.090Z,58.82
2023-05-04T22:44:13.442Z,58.75
2023-05-04T22:46:40.996Z,58.97
2023-05-04T22:49:09.383Z,59.15
2023-05-04T22:51:38.328Z,59.86
2023-05-04T22:54:05.975Z,60.01
2023-05-04T22:56:33.475Z,62.05
2023-05-04T22:59:00.793Z,63.21
2023-05-04T23:01:30.375Z,64.11
2023-05-04T23:03:58.901Z,65.06
2023-05-04T23:06:26.207Z,65.44
2023-05-04T23:08:55.664Z,66.25
2023-05-04T23:11:24.213Z,66.84
2023-05-04T23:13:51.718Z,67.19
2023-05-04T23:16:18.979Z,67.77
2023-05-04T23:18:49.114Z,68.20
2023-05-04T23:21:16.537Z,68.04
2023-05-04T23:23:44.124Z,68.70
2023-05-04T23:26:12.662Z,69.16
2023-05-04T23:28:39.996Z,69.54
2023-05-04T23:31:07.492Z,69.54
2023-05-04T23:33:34.930Z,70.57
2023-05-04T23:36:02.333Z,71.06
2023-05-04T23:38:29.802Z,71.62
2023-05-04T23:40:57.307Z,71.71
2023-05-04T23:43:24.886Z,71.41
2023-05-04T23:46:02.679Z,71.29
2023-05-04T23:48:33.065Z,70.85
2023-05-04T23:51:04.868Z,70.87
2023-05-04T23:53:33.957Z,71.81
2023-05-04T23:56:05.347Z,72.15
2023-05-04T23:58:34.807Z,73.55
